createdAt,value
2022-07-31T00:00:45.535Z,2.50
2022-07-31T00:03:13.712Z,2.70
2022-07-31T00:05:41.876Z,2.80
2022-07-31T00:08:09.434Z,3.08
2022-07-31T00:10:36.339Z,3.25
2022-07-31T00:13:03.177Z,2.33
2022-07-31T00:15:30.112Z,2.97
2022-07-31T00:17:58.019Z,2.70
2022-07-31T00:20:26.193Z,2.97
2022-07-31T00:22:54.705Z,3.22
2022-07-31T00:25:24.576Z,3.00
2022-07-31T00:27:51.390Z,3.10
2022-07-31T00:30:18.284Z,2.78
2022-07-31T00:32:45.753Z,2.83
2022-07-31T00:35:14.253Z,3.20
2022-07-31T00:37:44.268Z,2.90
2022-07-31T00:40:13.981Z,2.50
2022-07-31T00:42:40.936Z,2.70
2022-07-31T00:45:08.510Z,2.67
2022-07-31T00:47:36.140Z,2.75
2022-07-31T00:50:03.622Z,2.88
2022-07-31T00:52:30.511Z,2.70
2022-07-31T00:54:58.691Z,2.85
2022-07-31T00:57:25.431Z,2.92
2022-07-31T00:59:52.244Z,3.08
2022-07-31T01:02:19.006Z,2.72
2022-07-31T01:04:45.899Z,2.78
2022-07-31T01:07:12.751Z,3.00
2022-07-31T01:09:39.879Z,3.40
2022-07-31T01:12:14.963Z,3.15
2022-07-31T01:14:47.593Z,3.00
2022-07-31T01:17:15.235Z,3.20
2022-07-31T01:19:44.906Z,3.20
2022-07-31T01:22:33.600Z,2.92
2022-07-31T01:25:09.761Z,3.38
2022-07-31T01:27:52.173Z,3.20
2022-07-31T01:30:26.557Z,3.23
2022-07-31T01:33:02.274Z,3.17
2022-07-31T01:35:34.982Z,3.03
2022-07-31T01:38:08.481Z,3.30
2022-07-31T01:40:39.573Z,3.20
2022-07-31T01:43:11.569Z,3.08
2022-07-31T01:45:42.627Z,3.10
2022-07-31T01:48:14.203Z,2.97
2022-07-31T01:50:44.367Z,3.40
2022-07-31T01:53:13.786Z,2.88
2022-07-31T01:56:02.233Z,3.17
2022-07-31T01:58:29.887Z,2.97
2022-07-31T02:01:00.129Z,3.08
2022-07-31T02:03:42.870Z,2.70
2022-07-31T02:06:54.599Z,3.05
2022-07-31T02:09:23.980Z,3.15
2022-07-31T02:11:53.474Z,2.90
2022-07-31T02:14:22.753Z,3.03
2022-07-31T02:16:51.035Z,2.78
2022-07-31T02:19:20.644Z,3.42
2022-07-31T02:21:50.123Z,3.87
2022-07-31T02:24:17.594Z,3.47
2022-07-31T02:26:45.803Z,3.65
2022-07-31T02:29:19.788Z,3.33
2022-07-31T02:31:48.630Z,3.92
2022-07-31T02:34:32.377Z,3.45
2022-07-31T02:37:01.189Z,3.30
2022-07-31T02:39:30.779Z,3.30
2022-07-31T02:41:59.351Z,3.20
2022-07-31T02:44:27.477Z,2.80
2022-07-31T02:46:55.297Z,2.67
2022-07-31T02:49:22.320Z,3.00
2022-07-31T02:51:50.740Z,3.42
2022-07-31T02:54:18.094Z,3.25
2022-07-31T02:56:47.371Z,3.30
2022-07-31T02:59:14.429Z,3.42
2022-07-31T03:01:41.871Z,3.55
2022-07-31T03:04:08.790Z,3.38
2022-07-31T03:06:35.746Z,3.63
2022-07-31T03:09:04.063Z,3.08
2022-07-31T03:11:32.147Z,3.72
2022-07-31T03:14:01.835Z,3.40
2022-07-31T03:16:30.543Z,3.60
2022-07-31T03:18:57.781Z,3.60
2022-07-31T03:21:25.066Z,3.50
2022-07-31T03:23:52.171Z,3.50
2022-07-31T03:26:20.318Z,3.55
2022-07-31T03:28:47.170Z,3.33
2022-07-31T03:31:14.034Z,3.50
2022-07-31T03:33:41.122Z,3.75
2022-07-31T03:36:09.465Z,3.53
2022-07-31T03:38:41.124Z,3.90
2022-07-31T03:43:47.227Z,3.55
2022-07-31T03:46:16.791Z,3.40
2022-07-31T03:48:43.827Z,3.65
2022-07-31T03:51:10.707Z,3.67
2022-07-31T03:53:37.922Z,3.58
2022-07-31T03:56:06.241Z,3.70
2022-07-31T03:58:33.221Z,3.78
2022-07-31T04:01:01.637Z,3.25
2022-07-31T04:03:32.125Z,3.75
2022-07-31T04:05:59.028Z,3.63
2022-07-31T04:08:25.847Z,3.25
2022-07-31T04:10:52.607Z,3.63
2022-07-31T04:13:20.132Z,3.70
2022-07-31T04:15:46.983Z,3.30
2022-07-31T04:18:15.072Z,3.55
2022-07-31T04:20:41.931Z,4.03
2022-07-31T04:23:08.674Z,3.80
2022-07-31T04:25:36.238Z,3.83
2022-07-31T04:28:03.169Z,3.47
2022-07-31T04:30:29.975Z,3.80
2022-07-31T04:32:59.175Z,4.32
2022-07-31T04:35:27.814Z,3.72
2022-07-31T04:37:54.828Z,4.15
2022-07-31T04:40:21.915Z,3.53
2022-07-31T04:42:48.994Z,3.65
2022-07-31T04:45:15.886Z,3.65
2022-07-31T04:47:42.830Z,3.70
2022-07-31T04:50:09.829Z,3.80
2022-07-31T04:52:37.938Z,4.00
2022-07-31T04:55:05.283Z,3.88
2022-07-31T04:57:32.178Z,4.38
2022-07-31T05:00:01.409Z,4.03
2022-07-31T05:02:28.565Z,4.30
2022-07-31T05:04:57.268Z,4.13
2022-07-31T05:07:24.502Z,4.65
2022-07-31T05:09:56.025Z,4.30
2022-07-31T05:12:22.797Z,3.60
2022-07-31T05:14:49.550Z,3.90
2022-07-31T05:17:16.454Z,4.13
2022-07-31T05:19:43.253Z,4.20
2022-07-31T05:22:11.447Z,4.38
2022-07-31T05:24:40.175Z,3.95
2022-07-31T05:27:08.729Z,4.13
2022-07-31T05:29:35.483Z,3.85
2022-07-31T05:32:02.610Z,4.05
2022-07-31T05:34:29.869Z,4.07
2022-07-31T05:36:57.190Z,4.10
2022-07-31T05:39:25.110Z,4.50
2022-07-31T05:41:52.702Z,4.25
2022-07-31T05:44:20.843Z,3.90
2022-07-31T05:46:47.646Z,4.18
2022-07-31T05:49:14.494Z,4.45
2022-07-31T05:51:43.131Z,4.18
2022-07-31T05:54:09.895Z,3.95
2022-07-31T05:56:36.698Z,4.40
2022-07-31T05:59:03.734Z,4.15
2022-07-31T06:01:31.949Z,4.53
2022-07-31T06:03:58.723Z,4.10
2022-07-31T06:06:25.901Z,4.43
2022-07-31T06:08:52.765Z,4.60
2022-07-31T06:11:19.609Z,4.22
2022-07-31T06:13:46.421Z,4.28
2022-07-31T06:16:13.865Z,4.40
2022-07-31T06:18:42.487Z,4.18
2022-07-31T06:21:09.731Z,4.40
2022-07-31T06:23:36.483Z,3.95
2022-07-31T06:26:03.388Z,4.30
2022-07-31T06:28:35.370Z,4.35
2022-07-31T06:31:19.572Z,4.30
2022-07-31T06:33:48.786Z,3.90
2022-07-31T06:36:18.080Z,3.50
2022-07-31T06:38:45.841Z,3.92
2022-07-31T06:41:32.724Z,4.13
2022-07-31T06:43:59.518Z,3.60
2022-07-31T06:46:26.323Z,3.88
2022-07-31T06:48:54.467Z,3.80
2022-07-31T06:51:30.956Z,3.88
2022-07-31T06:53:58.573Z,3.60
2022-07-31T06:56:25.341Z,3.67
2022-07-31T06:58:52.222Z,3.45
2022-07-31T07:01:19.043Z,3.80
2022-07-31T07:03:46.057Z,4.00
2022-07-31T07:06:14.144Z,3.42
2022-07-31T07:08:42.427Z,3.97
2022-07-31T07:11:12.101Z,4.50
2022-07-31T07:13:46.172Z,4.13
2022-07-31T07:16:13.783Z,4.00
2022-07-31T07:18:40.551Z,4.05
2022-07-31T07:21:07.346Z,4.20
2022-07-31T07:23:37.292Z,3.78
2022-07-31T07:26:04.238Z,3.83
2022-07-31T07:28:31.611Z,3.75
2022-07-31T07:30:58.459Z,3.40
2022-07-31T07:33:41.044Z,3.60
2022-07-31T07:36:22.851Z,3.97
2022-07-31T07:38:55.124Z,3.72
2022-07-31T07:41:23.296Z,3.05
2022-07-31T07:43:52.489Z,3.47
2022-07-31T07:46:20.256Z,3.80
2022-07-31T07:48:49.300Z,3.38
2022-07-31T07:51:16.725Z,3.30
2022-07-31T07:53:43.527Z,3.90
2022-07-31T07:56:11.928Z,4.47
2022-07-31T07:58:38.796Z,3.63
2022-07-31T08:01:06.021Z,3.78
2022-07-31T08:03:49.919Z,3.10
2022-07-31T08:06:19.468Z,3.65
2022-07-31T08:08:46.193Z,3.30
2022-07-31T08:11:16.830Z,3.65
2022-07-31T08:13:49.677Z,3.17
2022-07-31T08:16:17.390Z,4.13
2022-07-31T08:18:44.215Z,3.25
2022-07-31T08:21:10.971Z,2.72
2022-07-31T08:23:38.301Z,2.78
2022-07-31T08:26:06.532Z,2.78
2022-07-31T08:28:35.875Z,2.83
2022-07-31T08:31:03.142Z,2.70
2022-07-31T08:33:30.216Z,2.80
2022-07-31T08:35:56.998Z,2.75
2022-07-31T08:38:24.064Z,2.97
2022-07-31T08:40:51.006Z,2.85
2022-07-31T08:46:07.912Z,3.00
2022-07-31T08:48:39.685Z,0.20
2022-07-31T08:51:06.859Z,7.97
2022-07-31T08:53:36.367Z,2.60
2022-07-31T08:56:03.773Z,2.90
2022-07-31T08:58:30.816Z,2.83
2022-07-31T09:00:57.878Z,3.38
2022-07-31T09:03:26.004Z,2.08
2022-07-31T09:05:52.918Z,2.65
2022-07-31T09:08:19.716Z,2.50
2022-07-31T09:10:50.022Z,1.95
2022-07-31T09:13:19.260Z,2.03
2022-07-31T09:15:46.494Z,2.20
2022-07-31T09:18:18.666Z,2.78
2022-07-31T09:20:56.222Z,2.40
2022-07-31T09:23:23.685Z,5.45
2022-07-31T09:25:55.340Z,2.10
2022-07-31T09:28:32.499Z,2.63
2022-07-31T09:30:59.837Z,2.28
2022-07-31T09:33:29.487Z,5.13
2022-07-31T09:35:58.735Z,2.10
2022-07-31T09:38:32.289Z,2.10
2022-07-31T09:41:52.342Z,1.98
2022-07-31T09:43:59.671Z,2.10
2022-07-31T09:46:27.385Z,1.92
2022-07-31T09:49:00.701Z,1.95
2022-07-31T09:51:38.258Z,1.88
2022-07-31T09:54:05.116Z,2.28
2022-07-31T09:56:32.313Z,1.98
2022-07-31T09:58:59.655Z,1.80
2022-07-31T10:01:27.205Z,1.70
2022-07-31T10:03:59.302Z,1.90
2022-07-31T10:06:31.469Z,1.55
2022-07-31T10:08:59.944Z,1.80
2022-07-31T10:11:28.015Z,1.58
2022-07-31T10:13:59.764Z,1.80
2022-07-31T10:16:29.562Z,2.10
2022-07-31T10:19:00.407Z,1.77
2022-07-31T10:21:32.993Z,1.77
2022-07-31T10:24:02.324Z,1.80
2022-07-31T10:26:57.420Z,1.58
2022-07-31T10:29:17.709Z,1.92
2022-07-31T10:31:46.314Z,2.00
2022-07-31T10:34:14.134Z,1.60
2022-07-31T10:36:45.297Z,1.70
2022-07-31T10:39:20.726Z,1.92
2022-07-31T10:41:59.931Z,1.90
2022-07-31T10:44:38.168Z,1.70
2022-07-31T10:47:13.091Z,1.98
2022-07-31T10:49:41.319Z,1.77
2022-07-31T10:52:09.980Z,1.63
2022-07-31T10:54:41.711Z,1.70
2022-07-31T10:57:08.674Z,1.90
2022-07-31T10:59:35.753Z,1.70
2022-07-31T11:02:02.563Z,1.98
2022-07-31T11:04:31.965Z,1.70
2022-07-31T11:06:59.251Z,1.70
2022-07-31T11:09:28.831Z,1.67
2022-07-31T11:11:56.293Z,1.50
2022-07-31T11:14:34.365Z,1.52
2022-07-31T11:17:01.501Z,1.73
2022-07-31T11:19:41.045Z,1.70
2022-07-31T11:22:31.733Z,1.50
2022-07-31T11:25:01.147Z,1.75
2022-07-31T11:27:31.371Z,2.03
2022-07-31T11:30:09.140Z,1.88
2022-07-31T11:32:39.694Z,1.52
2022-07-31T11:35:07.511Z,1.55
2022-07-31T11:37:46.213Z,1.70
2022-07-31T11:40:27.233Z,1.48
2022-07-31T11:43:16.647Z,1.42
2022-07-31T11:45:48.687Z,1.65
2022-07-31T11:48:19.278Z,1.60
2022-07-31T11:50:47.354Z,1.40
2022-07-31T11:53:14.133Z,1.60
2022-07-31T11:55:48.602Z,2.10
2022-07-31T11:58:16.632Z,1.58
2022-07-31T12:00:48.631Z,1.75
2022-07-31T12:03:16.767Z,1.75
2022-07-31T12:05:45.138Z,1.67
2022-07-31T12:08:12.581Z,1.48
2022-07-31T12:10:40.057Z,1.75
2022-07-31T12:13:15.877Z,2.00
2022-07-31T12:15:54.416Z,1.63
2022-07-31T12:18:21.531Z,1.67
2022-07-31T12:20:52.689Z,1.90
2022-07-31T12:23:40.295Z,1.70
2022-07-31T12:26:06.961Z,1.60
2022-07-31T12:28:35.021Z,2.08
2022-07-31T12:31:01.825Z,1.70
2022-07-31T12:33:28.698Z,1.58
2022-07-31T12:35:57.191Z,1.90
2022-07-31T12:38:41.074Z,1.65
2022-07-31T12:41:12.273Z,1.70
2022-07-31T12:43:50.206Z,1.95
2022-07-31T12:46:19.684Z,1.63
2022-07-31T12:48:46.479Z,1.83
2022-07-31T12:51:13.337Z,1.30
2022-07-31T12:53:40.100Z,1.58
2022-07-31T12:56:11.194Z,1.80
2022-07-31T12:58:37.922Z,1.90
2022-07-31T13:01:06.039Z,1.85
2022-07-31T13:03:45.995Z,1.80
2022-07-31T13:06:13.423Z,1.50
2022-07-31T13:08:40.681Z,1.40
2022-07-31T13:11:07.440Z,1.38
2022-07-31T13:13:34.180Z,1.80
2022-07-31T13:16:00.975Z,1.45
2022-07-31T13:18:30.002Z,1.50
2022-07-31T13:20:56.773Z,1.50
2022-07-31T13:23:23.611Z,1.60
2022-07-31T13:25:50.403Z,1.75
2022-07-31T13:28:17.129Z,1.88
2022-07-31T13:30:43.853Z,1.55
2022-07-31T13:33:10.799Z,1.77
2022-07-31T13:35:38.896Z,1.67
2022-07-31T13:38:05.617Z,1.65
2022-07-31T13:40:51.154Z,1.70
2022-07-31T13:43:18.062Z,1.50
2022-07-31T13:45:45.050Z,1.90
2022-07-31T13:48:11.866Z,1.58
2022-07-31T13:50:40.253Z,1.55
2022-07-31T13:53:07.325Z,1.73
2022-07-31T13:55:34.388Z,1.67
2022-07-31T13:58:01.692Z,1.70
2022-07-31T14:00:29.572Z,1.58
2022-07-31T14:02:57.355Z,1.90
2022-07-31T14:05:26.445Z,1.65
2022-07-31T14:07:55.041Z,1.65
2022-07-31T14:10:21.938Z,1.70
2022-07-31T14:12:49.286Z,1.70
2022-07-31T14:15:18.044Z,1.63
2022-07-31T14:17:45.182Z,1.60
2022-07-31T14:20:12.507Z,1.75
2022-07-31T14:22:39.951Z,1.55
2022-07-31T14:25:09.052Z,1.60
2022-07-31T14:27:36.857Z,2.20
2022-07-31T14:30:04.237Z,1.60
2022-07-31T14:32:31.795Z,1.80
2022-07-31T14:34:58.583Z,1.85
2022-07-31T14:37:25.478Z,1.90
2022-07-31T14:39:52.357Z,1.85
2022-07-31T14:42:22.511Z,1.60
2022-07-31T14:44:56.148Z,1.60
2022-07-31T14:47:23.149Z,1.70
2022-07-31T14:50:07.404Z,1.58
2022-07-31T14:52:36.736Z,1.50
2022-07-31T14:55:04.043Z,1.75
2022-07-31T14:57:32.111Z,1.60
2022-07-31T14:59:58.942Z,1.70
2022-07-31T15:02:26.200Z,1.70
2022-07-31T15:04:53.576Z,1.52
2022-07-31T15:07:39.851Z,1.70
2022-07-31T15:10:09.355Z,1.70
2022-07-31T15:12:37.478Z,1.95
2022-07-31T15:15:05.125Z,1.90
2022-07-31T15:17:31.884Z,1.55
2022-07-31T15:19:58.647Z,1.80
2022-07-31T15:22:25.436Z,1.58
2022-07-31T15:24:52.328Z,1.38
2022-07-31T15:27:21.508Z,1.90
2022-07-31T15:30:06.140Z,1.70
2022-07-31T15:32:35.078Z,1.73
2022-07-31T15:35:02.215Z,1.67
2022-07-31T15:37:30.033Z,1.60
2022-07-31T15:40:02.792Z,1.70
2022-07-31T15:42:30.788Z,1.73
2022-07-31T15:44:58.857Z,1.40
2022-07-31T15:47:25.765Z,1.45
2022-07-31T15:49:52.537Z,1.50
2022-07-31T15:52:19.818Z,1.70
2022-07-31T15:54:46.979Z,1.50
2022-07-31T15:57:13.775Z,1.30
2022-07-31T15:59:41.462Z,1.30
2022-07-31T16:02:09.605Z,1.40
2022-07-31T16:04:46.437Z,1.50
2022-07-31T16:08:32.079Z,1.65
2022-07-31T16:10:16.420Z,1.33
2022-07-31T16:12:45.224Z,1.30
2022-07-31T16:15:12.682Z,1.40
2022-07-31T16:17:41.055Z,1.65
2022-07-31T16:20:09.691Z,1.58
2022-07-31T16:22:37.126Z,1.50
2022-07-31T16:25:05.096Z,1.50
2022-07-31T16:27:31.856Z,1.60
2022-07-31T16:30:01.300Z,1.63
2022-07-31T16:32:30.068Z,1.35
2022-07-31T16:35:00.934Z,1.20
2022-07-31T16:37:51.459Z,1.37
2022-07-31T16:40:29.239Z,1.40
2022-07-31T16:42:59.461Z,1.23
2022-07-31T16:48:01.210Z,1.50
2022-07-31T16:50:29.554Z,1.33
2022-07-31T16:52:56.329Z,1.20
2022-07-31T16:55:51.837Z,1.27
2022-07-31T16:58:11.615Z,1.80
2022-07-31T17:00:39.314Z,1.35
2022-07-31T17:03:06.280Z,1.20
2022-07-31T17:05:34.605Z,1.10
2022-07-31T17:08:01.506Z,1.27
2022-07-31T17:10:28.321Z,1.77
2022-07-31T17:12:56.342Z,1.23
2022-07-31T17:15:23.165Z,1.40
2022-07-31T17:17:49.996Z,1.30
2022-07-31T17:20:23.173Z,1.23
2022-07-31T17:22:54.552Z,1.17
2022-07-31T17:25:22.641Z,1.10
2022-07-31T17:27:49.619Z,1.30
2022-07-31T17:30:16.487Z,1.30
2022-07-31T17:32:43.366Z,1.10
2022-07-31T17:35:13.665Z,1.10
2022-07-31T17:37:40.584Z,0.93
2022-07-31T17:40:33.637Z,1.20
2022-07-31T17:42:56.856Z,1.23
2022-07-31T17:45:23.619Z,1.45
2022-07-31T17:48:03.671Z,1.15
2022-07-31T17:50:30.882Z,1.33
2022-07-31T17:52:57.635Z,1.15
2022-07-31T17:55:25.793Z,1.25
2022-07-31T17:57:52.612Z,1.27
2022-07-31T18:00:19.416Z,1.20
2022-07-31T18:02:46.260Z,1.10
2022-07-31T18:05:13.161Z,1.02
2022-07-31T18:07:40.164Z,1.10
2022-07-31T18:10:09.173Z,1.00
2022-07-31T18:12:57.021Z,1.00
2022-07-31T18:15:34.872Z,1.42
2022-07-31T18:18:02.918Z,1.05
2022-07-31T18:20:29.792Z,1.40
2022-07-31T18:22:56.542Z,1.27
2022-07-31T18:25:23.479Z,1.35
2022-07-31T18:27:52.404Z,2.40
2022-07-31T18:30:19.165Z,1.45
2022-07-31T18:32:45.974Z,1.10
2022-07-31T18:35:12.850Z,1.27
2022-07-31T18:37:39.758Z,1.20
2022-07-31T18:40:08.416Z,1.10
2022-07-31T18:42:35.233Z,1.30
2022-07-31T18:45:03.970Z,1.15
2022-07-31T18:47:30.758Z,1.30
2022-07-31T18:50:58.697Z,0.95
2022-07-31T18:52:44.973Z,1.10
2022-07-31T18:55:12.078Z,1.30
2022-07-31T18:57:41.492Z,1.30
2022-07-31T19:00:12.516Z,1.20
2022-07-31T19:02:39.399Z,1.20
2022-07-31T19:05:07.717Z,1.13
2022-07-31T19:07:48.915Z,1.02
2022-07-31T19:10:30.982Z,1.42
2022-07-31T19:12:58.334Z,1.33
2022-07-31T19:15:26.794Z,1.33
2022-07-31T19:17:54.862Z,1.02
2022-07-31T19:20:57.469Z,1.30
2022-07-31T19:23:14.179Z,1.38
2022-07-31T19:25:59.546Z,1.25
2022-07-31T19:28:30.431Z,1.20
2022-07-31T19:30:59.161Z,1.30
2022-07-31T19:33:26.211Z,1.20
2022-07-31T19:35:58.497Z,1.40
2022-07-31T19:38:27.608Z,1.23
2022-07-31T19:40:54.475Z,1.38
2022-07-31T19:43:21.402Z,1.52
2022-07-31T19:46:09.645Z,1.33
2022-07-31T19:48:36.857Z,1.20
2022-07-31T19:51:03.891Z,1.40
2022-07-31T19:53:30.835Z,1.40
2022-07-31T19:55:57.815Z,1.50
2022-07-31T19:58:24.853Z,1.27
2022-07-31T20:00:51.667Z,1.40
2022-07-31T20:03:18.699Z,1.38
2022-07-31T20:05:48.313Z,1.27
2022-07-31T20:08:15.177Z,1.30
2022-07-31T20:10:42.078Z,1.55
2022-07-31T20:13:09.134Z,1.38
2022-07-31T20:15:52.240Z,1.30
2022-07-31T20:18:30.393Z,1.50
2022-07-31T20:21:02.458Z,1.52
2022-07-31T20:23:30.991Z,1.55
2022-07-31T20:25:58.551Z,1.63
2022-07-31T20:28:26.412Z,1.40
2022-07-31T20:30:53.513Z,1.48
2022-07-31T20:33:20.363Z,1.38
2022-07-31T20:35:49.324Z,1.42
2022-07-31T20:38:18.881Z,1.48
2022-07-31T20:40:53.792Z,1.50
2022-07-31T20:43:23.124Z,1.30
2022-07-31T20:45:50.382Z,1.33
2022-07-31T20:48:23.745Z,1.75
2022-07-31T20:50:50.745Z,1.52
2022-07-31T20:53:20.804Z,1.75
2022-07-31T20:55:49.624Z,1.58
2022-07-31T20:58:17.051Z,1.60
2022-07-31T21:00:45.263Z,1.50
2022-07-31T21:03:12.180Z,1.50
2022-07-31T21:05:39.042Z,1.58
2022-07-31T21:08:06.065Z,1.45
2022-07-31T21:10:35.471Z,1.63
2022-07-31T21:13:02.286Z,1.67
2022-07-31T21:15:42.784Z,1.60
2022-07-31T21:18:12.390Z,1.90
2022-07-31T21:20:51.156Z,1.80
2022-07-31T21:23:21.006Z,1.52
2022-07-31T21:25:49.551Z,1.50
2022-07-31T21:28:16.831Z,1.70
2022-07-31T21:30:43.998Z,1.95
2022-07-31T21:33:11.160Z,1.90
2022-07-31T21:35:39.824Z,1.60
2022-07-31T21:38:10.257Z,1.95
2022-07-31T21:40:39.349Z,1.83
2022-07-31T21:43:08.586Z,1.77
2022-07-31T21:45:50.964Z,1.52
2022-07-31T21:48:24.936Z,1.88
2022-07-31T21:50:54.459Z,1.80
2022-07-31T21:53:21.306Z,2.00
2022-07-31T21:55:48.083Z,1.50
2022-07-31T21:58:16.662Z,1.80
2022-07-31T22:00:44.326Z,1.92
2022-07-31T22:03:11.294Z,1.90
2022-07-31T22:05:56.638Z,1.90
2022-07-31T22:08:23.462Z,1.92
2022-07-31T22:10:51.219Z,2.10
2022-07-31T22:13:20.238Z,1.90
2022-07-31T22:15:50.481Z,1.98
2022-07-31T22:18:27.086Z,1.90
2022-07-31T22:20:54.139Z,2.10
2022-07-31T22:23:21.400Z,1.92
2022-07-31T22:25:49.447Z,2.08
2022-07-31T22:28:18.698Z,2.03
2022-07-31T22:30:48.062Z,2.30
2022-07-31T22:33:15.151Z,2.05
2022-07-31T22:35:42.706Z,2.08
2022-07-31T22:38:11.793Z,2.10
2022-07-31T22:40:38.845Z,2.10
2022-07-31T22:44:09.650Z,1.92
2022-07-31T22:45:55.653Z,2.05
2022-07-31T22:48:24.783Z,2.10
2022-07-31T22:50:54.609Z,2.35
2022-07-31T22:53:21.665Z,1.90
2022-07-31T22:55:48.450Z,2.33
2022-07-31T22:58:15.296Z,2.17
2022-07-31T23:00:42.565Z,2.00
2022-07-31T23:03:10.861Z,2.13
2022-07-31T23:06:28.281Z,2.17
2022-07-31T23:08:24.474Z,1.80
2022-07-31T23:10:51.304Z,2.22
2022-07-31T23:13:18.059Z,2.33
2022-07-31T23:15:44.869Z,2.00
2022-07-31T23:18:13.065Z,2.10
2022-07-31T23:20:40.091Z,2.10
2022-07-31T23:23:06.846Z,1.92
2022-07-31T23:25:34.027Z,2.20
2022-07-31T23:28:00.990Z,2.08
2022-07-31T23:30:27.781Z,2.17
2022-07-31T23:32:55.394Z,2.22
2022-07-31T23:35:23.505Z,2.00
2022-07-31T23:37:50.306Z,2.35
2022-07-31T23:40:17.122Z,2.10
2022-07-31T23:42:43.856Z,2.30
2022-07-31T23:45:13.166Z,2.28
2022-07-31T23:47:45.510Z,1.98
2022-07-31T23:50:14.152Z,2.28
2022-07-31T23:52:42.303Z,2.20
2022-07-31T23:55:09.524Z,2.28
2022-07-31T23:57:36.642Z,2.38
